createdAt,value
2022-10-28T00:00:31.248Z,101102.63
2022-10-28T00:03:00.563Z,101096.41
2022-10-28T00:05:27.927Z,101099.03
2022-10-28T00:07:54.903Z,101093.69
2022-10-28T00:10:22.042Z,101101.69
2022-10-28T00:12:49.833Z,101093.66
2022-10-28T00:15:16.530Z,101096.31
2022-10-28T00:17:43.098Z,101091.84
2022-10-28T00:20:10.021Z,101082.06
2022-10-28T00:22:36.553Z,101082.03
2022-10-28T00:25:03.752Z,101080.19
2022-10-28T00:27:31.541Z,101078.44
2022-10-28T00:29:58.021Z,101085.50
2022-10-28T00:32:24.526Z,101078.38
2022-10-28T00:34:51.055Z,101068.59
2022-10-28T00:37:17.548Z,101074.81
2022-10-28T00:39:44.057Z,101078.34
2022-10-28T00:42:11.565Z,101072.09
2022-10-28T00:45:01.150Z,101073.88
2022-10-28T00:47:39.707Z,101068.53
2022-10-28T00:50:24.301Z,101059.66
2022-10-28T00:52:56.434Z,101062.31
2022-10-28T00:55:24.299Z,101065.84
2022-10-28T00:57:56.568Z,101069.38
2022-10-28T01:00:24.957Z,101071.19
2022-10-28T01:02:52.090Z,101074.75
2022-10-28T01:05:28.757Z,101068.53
2022-10-28T01:08:01.506Z,101079.22
2022-10-28T01:10:58.921Z,101088.13
2022-10-28T01:13:40.591Z,101081.94
2022-10-28T01:16:20.449Z,101089.94
2022-10-28T01:19:28.306Z,101097.09
2022-10-28T01:22:21.276Z,101097.13
2022-10-28T01:25:12.504Z,101103.34
2022-10-28T01:27:54.339Z,101104.25
2022-10-28T01:30:26.519Z,101114.00
2022-10-28T01:33:10.509Z,101110.47
2022-10-28T01:35:52.497Z,101112.28
2022-10-28T01:38:48.926Z,101107.81
2022-10-28T01:41:39.202Z,101108.72
2022-10-28T01:44:23.913Z,101103.38
2022-10-28T01:47:14.703Z,101093.66
2022-10-28T01:49:51.621Z,101089.22
2022-10-28T01:52:24.032Z,101086.56
2022-10-28T01:55:05.943Z,101096.31
2022-10-28T01:57:35.972Z,101092.75
2022-10-28T02:00:04.346Z,101090.97
2022-10-28T02:02:39.849Z,101084.75
2022-10-28T02:05:33.584Z,101082.09
2022-10-28T02:08:07.333Z,101079.44
2022-10-28T02:10:41.184Z,101078.53
2022-10-28T02:13:13.737Z,101067.88
2022-10-28T02:16:18.988Z,101067.88
2022-10-28T02:18:45.451Z,101066.09
2022-10-28T02:21:23.635Z,101071.41
2022-10-28T02:23:59.936Z,101072.25
2022-10-28T02:26:39.380Z,101062.47
2022-10-28T02:29:15.090Z,101059.81
2022-10-28T02:32:08.156Z,101050.06
2022-10-28T02:34:40.303Z,101042.13
2022-10-28T02:37:12.842Z,101040.38
2022-10-28T02:39:49.229Z,101035.03
2022-10-28T02:42:21.733Z,101046.59
2022-10-28T02:44:52.926Z,101060.81
2022-10-28T02:47:23.300Z,101061.72
2022-10-28T02:49:56.416Z,101067.94
2022-10-28T02:52:26.282Z,101051.97
2022-10-28T02:54:58.376Z,101045.75
2022-10-28T02:57:32.611Z,101030.66
2022-10-28T03:00:01.853Z,101042.22
2022-10-28T03:02:29.029Z,101040.41
2022-10-28T03:04:55.604Z,101034.19
2022-10-28T03:07:22.496Z,101031.53
2022-10-28T03:09:49.079Z,101026.22
2022-10-28T03:12:15.786Z,101032.38
2022-10-28T03:14:42.439Z,101026.19
2022-10-28T03:17:09.292Z,101021.75
2022-10-28T03:19:35.867Z,101022.66
2022-10-28T03:22:02.389Z,101024.41
2022-10-28T03:24:28.878Z,101015.53
2022-10-28T03:26:55.467Z,101008.44
2022-10-28T03:29:21.965Z,101000.44
2022-10-28T03:31:48.501Z,100994.22
2022-10-28T03:34:15.093Z,101003.09
2022-10-28T03:36:41.701Z,100999.47
2022-10-28T03:39:08.361Z,101003.03
2022-10-28T03:41:34.916Z,101003.88
2022-10-28T03:44:01.435Z,100995.00
2022-10-28T03:46:29.101Z,100990.53
2022-10-28T03:48:57.629Z,100986.06
2022-10-28T03:51:24.230Z,100992.28
2022-10-28T03:53:50.745Z,100994.97
2022-10-28T03:56:17.287Z,100989.63
2022-10-28T03:58:44.027Z,100993.19
2022-10-28T04:01:10.618Z,100980.78
2022-10-28T04:03:37.398Z,100992.34
2022-10-28T04:06:04.057Z,100997.66
2022-10-28T04:08:30.547Z,101006.50
2022-10-28T04:10:57.253Z,100991.44
2022-10-28T04:13:23.885Z,101002.09
2022-10-28T04:15:50.412Z,100996.75
2022-10-28T04:18:16.969Z,100986.97
2022-10-28T04:20:44.722Z,100986.13
2022-10-28T04:23:15.867Z,100979.00
2022-10-28T04:25:42.610Z,100978.09
2022-10-28T04:28:09.164Z,100987.88
2022-10-28T04:30:35.909Z,100983.41
2022-10-28T04:33:02.404Z,100985.16
2022-10-28T04:35:28.895Z,100993.16
2022-10-28T04:37:55.810Z,100989.59
2022-10-28T04:40:22.650Z,101001.97
2022-10-28T04:42:49.453Z,101007.28
2022-10-28T04:45:16.122Z,100994.84
2022-10-28T04:47:42.657Z,100993.09
2022-10-28T04:50:09.303Z,100993.09
2022-10-28T04:52:35.836Z,100976.25
2022-10-28T04:55:02.366Z,100975.38
2022-10-28T04:57:28.894Z,100966.50
2022-10-28T04:59:55.560Z,100963.88
2022-10-28T05:02:23.421Z,100955.00
2022-10-28T05:04:50.136Z,100947.88
2022-10-28T05:07:18.753Z,100947.03
2022-10-28T05:09:47.936Z,100956.78
2022-10-28T05:12:14.500Z,100952.41
2022-10-28T05:14:40.990Z,100953.31
2022-10-28T05:17:08.736Z,100941.78
2022-10-28T05:19:35.412Z,100940.94
2022-10-28T05:22:02.501Z,100956.06
2022-10-28T05:24:29.031Z,100956.97
2022-10-28T05:26:55.644Z,100957.00
2022-10-28T05:29:22.208Z,100958.81
2022-10-28T05:31:48.841Z,100947.25
2022-10-28T05:34:15.447Z,100948.16
2022-10-28T05:36:42.011Z,100944.63
2022-10-28T05:39:08.527Z,100933.97
2022-10-28T05:41:38.659Z,100924.19
2022-10-28T05:44:06.089Z,100926.88
2022-10-28T05:46:32.660Z,100925.97
2022-10-28T05:48:59.151Z,100914.47
2022-10-28T05:51:25.674Z,100915.34
2022-10-28T05:53:52.499Z,100906.50
2022-10-28T05:56:19.042Z,100912.72
2022-10-28T05:58:45.776Z,100904.75
2022-10-28T06:01:12.445Z,100913.63
2022-10-28T06:03:39.045Z,100908.28
2022-10-28T06:06:05.804Z,100902.06
2022-10-28T06:08:32.388Z,100902.09
2022-10-28T06:10:57.352Z,100904.75
2022-10-28T06:13:24.204Z,100909.19
2022-10-28T06:15:54.412Z,100909.19
2022-10-28T06:18:22.516Z,100905.63
2022-10-28T06:20:56.334Z,100899.41
2022-10-28T06:23:24.793Z,100902.94
2022-10-28T06:28:22.550Z,100904.72
2022-10-28T06:30:49.305Z,100898.50
2022-10-28T06:33:15.910Z,100909.16
2022-10-28T06:35:42.513Z,100907.41
2022-10-28T06:38:09.591Z,100898.50
2022-10-28T06:40:36.251Z,100899.38
2022-10-28T06:43:05.028Z,100901.19
2022-10-28T06:45:33.243Z,100902.94
2022-10-28T06:48:04.261Z,100907.38
2022-10-28T06:50:31.629Z,100916.25
2022-10-28T06:52:58.795Z,100914.50
2022-10-28T06:55:26.418Z,100918.03
2022-10-28T06:57:53.416Z,100912.72
2022-10-28T07:00:20.326Z,100920.72
2022-10-28T07:02:52.778Z,100916.28
2022-10-28T07:05:20.159Z,100915.38
2022-10-28T07:07:46.785Z,100914.50
2022-10-28T07:10:13.597Z,100914.50
2022-10-28T07:12:40.160Z,100926.06
2022-10-28T07:15:07.506Z,100927.84
2022-10-28T07:17:34.018Z,100919.84
2022-10-28T07:20:00.484Z,100925.19
2022-10-28T07:22:27.017Z,100927.84
2022-10-28T07:24:53.556Z,100928.72
2022-10-28T07:27:20.159Z,100929.59
2022-10-28T07:29:46.624Z,100923.41
2022-10-28T07:32:13.166Z,100930.53
2022-10-28T07:34:39.621Z,100931.41
2022-10-28T07:37:06.146Z,100927.84
2022-10-28T07:39:33.048Z,100928.72
2022-10-28T07:42:01.521Z,100929.59
2022-10-28T07:44:28.581Z,100927.78
2022-10-28T07:46:57.992Z,100934.88
2022-10-28T07:49:25.038Z,100949.06
2022-10-28T07:51:51.744Z,100949.00
2022-10-28T07:54:18.265Z,100940.09
2022-10-28T07:56:44.857Z,100938.25
2022-10-28T07:59:11.476Z,100937.31
2022-10-28T08:01:38.114Z,100940.00
2022-10-28T08:04:04.764Z,100943.56
2022-10-28T08:06:31.455Z,100939.06
2022-10-28T08:08:58.471Z,100939.09
2022-10-28T08:11:25.372Z,100945.28
2022-10-28T08:13:53.213Z,100940.81
2022-10-28T08:16:19.960Z,100937.22
2022-10-28T08:18:46.495Z,100933.63
2022-10-28T08:21:14.517Z,100935.38
2022-10-28T08:23:46.309Z,100926.44
2022-10-28T08:26:15.530Z,100929.97
2022-10-28T08:28:42.555Z,100927.31
2022-10-28T08:31:10.099Z,100921.00
2022-10-28T08:33:39.183Z,100917.41
2022-10-28T08:36:07.628Z,100922.72
2022-10-28T08:38:34.262Z,100923.56
2022-10-28T08:41:40.853Z,100924.38
2022-10-28T08:44:13.183Z,100926.09
2022-10-28T08:46:57.773Z,100934.84
2022-10-28T08:49:24.889Z,100941.88
2022-10-28T08:51:58.738Z,100937.28
2022-10-28T08:54:31.446Z,100943.41
2022-10-28T08:57:01.420Z,100935.28
2022-10-28T08:59:33.571Z,100928.97
2022-10-28T09:02:05.104Z,100930.66
2022-10-28T09:04:40.364Z,100926.16
2022-10-28T09:07:20.338Z,100925.94
2022-10-28T09:09:49.402Z,100931.09
2022-10-28T09:12:23.298Z,100930.06
2022-10-28T09:15:01.883Z,100932.41
2022-10-28T09:17:58.167Z,100944.69
2022-10-28T09:20:44.232Z,100941.84
2022-10-28T09:23:18.611Z,100945.19
2022-10-28T09:26:05.181Z,100944.16
2022-10-28T09:28:43.623Z,100944.94
2022-10-28T09:31:25.689Z,100942.84
2022-10-28T09:34:08.606Z,100944.34
2022-10-28T09:36:40.278Z,100945.03
2022-10-28T09:39:13.741Z,100943.94
2022-10-28T09:41:42.698Z,100950.06
2022-10-28T09:44:25.636Z,100945.44
2022-10-28T09:46:56.848Z,100947.28
2022-10-28T09:49:28.358Z,100948.06
2022-10-28T09:52:23.621Z,100947.09
2022-10-28T09:54:53.234Z,100942.50
2022-10-28T09:57:22.415Z,100935.34
2022-10-28T09:59:49.101Z,100945.06
2022-10-28T10:02:29.689Z,100933.31
2022-10-28T10:04:57.877Z,100940.38
2022-10-28T10:07:38.536Z,100926.91
2022-10-28T10:10:13.736Z,100926.94
2022-10-28T10:12:40.886Z,100922.41
2022-10-28T10:15:15.721Z,100923.44
2022-10-28T10:17:45.823Z,100927.94
2022-10-28T10:20:20.662Z,100924.31
2022-10-28T10:22:49.227Z,100920.75
2022-10-28T10:25:21.360Z,100926.94
2022-10-28T10:27:57.793Z,100924.25
2022-10-28T10:30:31.385Z,100935.81
2022-10-28T10:32:58.823Z,100928.50
2022-10-28T10:35:32.007Z,100940.75
2022-10-28T10:38:02.030Z,100932.44
2022-10-28T10:40:31.497Z,100931.41
2022-10-28T10:43:20.433Z,100927.66
2022-10-28T10:45:59.042Z,100930.09
2022-10-28T10:48:25.642Z,100929.91
2022-10-28T10:50:53.793Z,100924.44
2022-10-28T10:53:26.422Z,100909.06
2022-10-28T10:56:05.637Z,100918.78
2022-10-28T10:58:39.941Z,100911.63
2022-10-28T11:01:09.484Z,100920.56
2022-10-28T11:03:49.207Z,100906.03
2022-10-28T11:06:24.718Z,100910.38
2022-10-28T11:09:01.307Z,100913.81
2022-10-28T11:11:39.774Z,100910.88
2022-10-28T11:14:18.085Z,100916.97
2022-10-28T11:16:50.611Z,100913.19
2022-10-28T11:19:24.171Z,100927.34
2022-10-28T11:22:14.094Z,100911.03
2022-10-28T11:25:18.326Z,100911.81
2022-10-28T11:27:58.686Z,100908.03
2022-10-28T11:30:38.413Z,100910.63
2022-10-28T11:33:29.928Z,100891.63
2022-10-28T11:36:11.693Z,100890.41
2022-10-28T11:39:03.800Z,100887.59
2022-10-28T11:41:51.814Z,100887.34
2022-10-28T11:44:52.461Z,100885.44
2022-10-28T11:47:36.642Z,100885.44
2022-10-28T11:50:19.396Z,100883.53
2022-10-28T11:53:14.963Z,100874.38
2022-10-28T11:56:06.176Z,100869.84
2022-10-28T11:58:32.654Z,100866.22
2022-10-28T12:01:28.774Z,100867.94
2022-10-28T12:04:19.388Z,100863.31
2022-10-28T12:06:55.089Z,100865.75
2022-10-28T12:09:42.866Z,100866.53
2022-10-28T12:12:25.253Z,100868.19
2022-10-28T12:15:01.320Z,100868.97
2022-10-28T12:17:44.074Z,100867.91
2022-10-28T12:20:20.779Z,100867.81
2022-10-28T12:22:55.243Z,100856.03
2022-10-28T12:25:26.712Z,100858.66
2022-10-28T12:28:00.339Z,100858.50
2022-10-28T12:30:30.665Z,100859.31
2022-10-28T12:33:19.389Z,100852.91
2022-10-28T12:35:51.379Z,100842.06
2022-10-28T12:38:33.805Z,100840.03
2022-10-28T12:41:13.668Z,100830.78
2022-10-28T12:44:04.456Z,100831.47
2022-10-28T12:46:45.124Z,100828.63
2022-10-28T12:49:20.788Z,100831.28
2022-10-28T12:51:47.566Z,100829.69
2022-10-28T12:54:15.049Z,100823.44
2022-10-28T12:56:50.551Z,100822.56
2022-10-28T12:59:30.178Z,100829.69
2022-10-28T13:01:57.374Z,100830.72
2022-10-28T13:04:24.999Z,100829.69
2022-10-28T13:07:00.681Z,100838.50
2022-10-28T13:09:50.944Z,100835.69
2022-10-28T13:12:51.974Z,100838.38
2022-10-28T13:15:27.821Z,100828.63
2022-10-28T13:18:31.973Z,100838.75
2022-10-28T13:21:29.487Z,100835.28
2022-10-28T13:24:02.057Z,100838.09
2022-10-28T13:26:35.334Z,100842.69
2022-10-28T13:29:07.415Z,100837.38
2022-10-28T13:31:53.642Z,100841.94
2022-10-28T13:34:29.829Z,100845.59
2022-10-28T13:36:59.776Z,100838.59
2022-10-28T13:39:29.183Z,100830.59
2022-10-28T13:42:14.977Z,100829.84
2022-10-28T13:44:53.336Z,100832.53
2022-10-28T13:47:24.372Z,100827.19
2022-10-28T13:50:06.188Z,100826.38
2022-10-28T13:52:34.167Z,100821.03
2022-10-28T13:55:22.234Z,100822.94
2022-10-28T13:57:51.932Z,100821.25
2022-10-28T14:00:18.649Z,100816.81
2022-10-28T14:02:57.736Z,100810.59
2022-10-28T14:05:37.011Z,100807.97
2022-10-28T14:08:06.718Z,100814.34
2022-10-28T14:10:38.139Z,100802.81
2022-10-28T14:15:48.391Z,100803.16
2022-10-28T14:18:41.431Z,100804.25
2022-10-28T14:21:02.361Z,100800.84
2022-10-28T14:23:28.862Z,100813.63
2022-10-28T14:25:56.049Z,100810.28
2022-10-28T14:28:30.796Z,100802.28
2022-10-28T14:31:12.599Z,100805.97
2022-10-28T14:34:06.497Z,100813.25
2022-10-28T14:36:42.111Z,100813.44
2022-10-28T14:39:25.456Z,100806.31
2022-10-28T14:42:15.482Z,100793.84
2022-10-28T14:44:57.006Z,100792.22
2022-10-28T14:48:12.433Z,100793.22
2022-10-28T14:50:47.799Z,100798.75
2022-10-28T14:53:20.640Z,100797.13
2022-10-28T14:55:55.864Z,100796.41
2022-10-28T14:58:31.619Z,100781.31
2022-10-28T15:01:01.238Z,100785.13
2022-10-28T15:03:28.651Z,100793.41
2022-10-28T15:05:55.310Z,100790.00
2022-10-28T15:08:23.817Z,100783.94
2022-10-28T15:10:50.536Z,100789.47
2022-10-28T15:13:18.984Z,100787.03
2022-10-28T15:15:53.664Z,100781.88
2022-10-28T15:18:24.059Z,100783.84
2022-10-28T15:21:08.028Z,100785.81
2022-10-28T15:23:35.357Z,100787.75
2022-10-28T15:26:12.491Z,100782.56
2022-10-28T15:28:40.767Z,100779.16
2022-10-28T15:31:08.150Z,100788.25
2022-10-28T15:33:40.049Z,100788.44
2022-10-28T15:36:09.956Z,100788.53
2022-10-28T15:38:40.575Z,100781.50
2022-10-28T15:41:22.547Z,100788.84
2022-10-28T15:44:02.463Z,100786.31
2022-10-28T15:46:30.571Z,100781.09
2022-10-28T15:48:59.528Z,100783.94
2022-10-28T15:51:26.396Z,100786.72
2022-10-28T15:53:55.173Z,100790.38
2022-10-28T15:56:24.454Z,100785.13
2022-10-28T15:59:36.193Z,100794.19
2022-10-28T16:02:02.792Z,100786.19
2022-10-28T16:04:44.138Z,100796.06
2022-10-28T16:07:11.241Z,100794.31
2022-10-28T16:09:46.029Z,100798.88
2022-10-28T16:12:26.424Z,100794.44
2022-10-28T16:15:01.429Z,100795.47
2022-10-28T16:17:30.802Z,100796.47
2022-10-28T16:20:00.762Z,100801.91
2022-10-28T16:22:29.033Z,100802.88
2022-10-28T16:24:56.347Z,100808.38
2022-10-28T16:27:28.454Z,100803.06
2022-10-28T16:29:55.010Z,100803.19
2022-10-28T16:32:30.812Z,100802.41
2022-10-28T16:34:59.399Z,100796.22
2022-10-28T16:37:28.171Z,100799.84
2022-10-28T16:39:55.371Z,100801.69
2022-10-28T16:42:22.708Z,100812.44
2022-10-28T16:44:49.619Z,100810.69
2022-10-28T16:47:18.697Z,100802.72
2022-10-28T16:49:45.666Z,100822.41
2022-10-28T16:52:15.590Z,100812.63
2022-10-28T16:54:42.738Z,100812.66
2022-10-28T16:57:09.268Z,100818.94
2022-10-28T16:59:35.774Z,100819.91
2022-10-28T17:02:02.296Z,100820.88
2022-10-28T17:04:29.707Z,100817.34
2022-10-28T17:06:56.407Z,100817.41
2022-10-28T17:09:23.199Z,100819.22
2022-10-28T17:11:49.696Z,100821.97
2022-10-28T17:14:16.172Z,100824.72
2022-10-28T17:16:43.512Z,100824.75
2022-10-28T17:19:10.198Z,100842.66
2022-10-28T17:21:36.734Z,100828.38
2022-10-28T17:24:04.417Z,100838.28
2022-10-28T17:26:30.945Z,100838.34
2022-10-28T17:28:57.444Z,100838.38
2022-10-28T17:31:25.321Z,100837.50
2022-10-28T17:33:55.505Z,100832.19
2022-10-28T17:36:23.165Z,100837.53
2022-10-28T17:38:49.818Z,100846.47
2022-10-28T17:41:16.344Z,100844.75
2022-10-28T17:43:42.910Z,100849.28
2022-10-28T17:46:09.920Z,100855.59
2022-10-28T17:48:37.097Z,100858.34
2022-10-28T17:51:03.756Z,100862.00
2022-10-28T17:53:30.272Z,100854.94
2022-10-28T17:56:03.681Z,100853.25
2022-10-28T17:58:31.263Z,100856.94
2022-10-28T18:01:02.352Z,100857.88
2022-10-28T18:03:32.841Z,100860.56
2022-10-28T18:06:03.536Z,100872.09
2022-10-28T18:08:37.679Z,100867.56
2022-10-28T18:11:05.228Z,100868.47
2022-10-28T18:13:37.909Z,100869.31
2022-10-28T18:16:09.478Z,100870.25
2022-10-28T18:18:41.048Z,100871.16
2022-10-28T18:21:10.815Z,100875.66
2022-10-28T18:23:37.552Z,100874.81
2022-10-28T18:26:06.776Z,100880.19
2022-10-28T18:28:36.052Z,100879.31
2022-10-28T18:31:05.529Z,100884.72
2022-10-28T18:33:33.585Z,100882.97
2022-10-28T18:36:01.388Z,100879.44
2022-10-28T18:38:28.395Z,100885.75
2022-10-28T18:40:54.996Z,100884.91
2022-10-28T18:43:22.888Z,100876.91
2022-10-28T18:45:50.407Z,100881.44
2022-10-28T18:48:17.898Z,100882.38
2022-10-28T18:50:54.302Z,100888.66
2022-10-28T18:53:21.778Z,100893.19
2022-10-28T18:55:48.304Z,100890.53
2022-10-28T18:58:15.280Z,100906.63
2022-10-28T19:00:42.095Z,100892.38
2022-10-28T19:03:20.256Z,100902.19
2022-10-28T19:05:46.832Z,100894.22
2022-10-28T19:08:13.882Z,100904.94
2022-10-28T19:10:40.512Z,100909.41
2022-10-28T19:13:07.351Z,100912.09
2022-10-28T19:15:35.004Z,100918.38
2022-10-28T19:18:01.657Z,100919.28
2022-10-28T19:20:28.252Z,100913.94
2022-10-28T19:22:55.023Z,100911.31
2022-10-28T19:25:21.823Z,100911.38
2022-10-28T19:27:48.324Z,100913.22
2022-10-28T19:30:14.895Z,100921.25
2022-10-28T19:32:41.564Z,100919.50
2022-10-28T19:35:08.539Z,100923.97
2022-10-28T19:37:35.192Z,100923.09
2022-10-28T19:40:02.061Z,100933.84
2022-10-28T19:42:28.649Z,100932.97
2022-10-28T19:44:55.913Z,100931.19
2022-10-28T19:47:22.507Z,100941.94
2022-10-28T19:49:49.050Z,100944.63
2022-10-28T19:52:15.635Z,100945.56
2022-10-28T19:54:42.132Z,100954.47
2022-10-28T19:57:08.722Z,100956.28
2022-10-28T19:59:35.469Z,100959.88
2022-10-28T20:02:02.057Z,100963.50
2022-10-28T20:04:28.616Z,100961.72
2022-10-28T20:06:57.678Z,100964.44
2022-10-28T20:09:28.824Z,100964.44
2022-10-28T20:11:55.932Z,100970.66
2022-10-28T20:14:22.559Z,100979.59
2022-10-28T20:16:49.388Z,100981.34
2022-10-28T20:19:15.963Z,100981.34
2022-10-28T20:21:44.501Z,100985.81
2022-10-28T20:24:11.004Z,100989.38
2022-10-28T20:26:38.916Z,100991.13
2022-10-28T20:29:10.015Z,100993.78
2022-10-28T20:31:38.999Z,100994.72
2022-10-28T20:34:05.755Z,100991.16
2022-10-28T20:36:40.977Z,100989.38
2022-10-28T20:39:10.683Z,100985.84
2022-10-28T20:41:39.170Z,100991.22
2022-10-28T20:44:06.737Z,101004.59
2022-10-28T20:46:34.647Z,100994.84
2022-10-28T20:49:01.617Z,100999.28
2022-10-28T20:51:30.205Z,101010.03
2022-10-28T20:53:57.240Z,101010.91
2022-10-28T20:56:29.710Z,101023.38
2022-10-28T20:58:57.715Z,101016.25
2022-10-28T21:01:27.227Z,101020.72
2022-10-28T21:03:58.692Z,101025.16
2022-10-28T21:06:25.904Z,101018.06
2022-10-28T21:08:56.491Z,101018.97
2022-10-28T21:11:23.911Z,101026.09
2022-10-28T21:13:52.465Z,101033.22
2022-10-28T21:16:20.035Z,101029.66
2022-10-28T21:18:46.607Z,101039.47
2022-10-28T21:21:13.262Z,101037.69
2022-10-28T21:23:39.893Z,101043.03
2022-10-28T21:26:07.866Z,101048.38
2022-10-28T21:28:36.001Z,101051.94
2022-10-28T21:31:07.906Z,101070.63
2022-10-28T21:33:36.045Z,101075.94
2022-10-28T21:36:06.227Z,101090.19
2022-10-28T21:38:34.124Z,101075.91
2022-10-28T21:41:10.828Z,101073.25
2022-10-28T21:43:39.517Z,101063.47
2022-10-28T21:46:06.491Z,101065.22
2022-10-28T21:48:34.635Z,101067.91
2022-10-28T21:51:02.951Z,101077.69
2022-10-28T21:53:33.130Z,101084.78
2022-10-28T21:56:11.138Z,101089.25
2022-10-28T21:58:40.904Z,101097.22
2022-10-28T22:01:10.142Z,101091.88
2022-10-28T22:03:38.174Z,101085.63
2022-10-28T22:06:05.507Z,101083.84
2022-10-28T22:08:32.217Z,101075.78
2022-10-28T22:11:20.769Z,101085.59
2022-10-28T22:13:54.725Z,101081.97
2022-10-28T22:16:21.491Z,101089.09
2022-10-28T22:18:47.966Z,101092.69
2022-10-28T22:21:20.904Z,101090.03
2022-10-28T22:23:47.476Z,101094.47
2022-10-28T22:26:20.736Z,101095.38
2022-10-28T22:28:48.227Z,101097.19
2022-10-28T22:31:17.813Z,101097.25
2022-10-28T22:33:44.647Z,101099.03
2022-10-28T22:36:16.391Z,101099.06
2022-10-28T22:38:43.056Z,101108.00
2022-10-28T22:41:16.862Z,101100.00
2022-10-28T22:43:45.581Z,101091.13
2022-10-28T22:46:13.327Z,101087.56
2022-10-28T22:48:40.049Z,101084.91
2022-10-28T22:51:07.207Z,101076.00
2022-10-28T22:53:33.783Z,101081.38
2022-10-28T22:56:00.295Z,101095.66
2022-10-28T22:58:27.748Z,101105.44
2022-10-28T23:00:54.519Z,101109.91
2022-10-28T23:03:21.012Z,101112.63
2022-10-28T23:05:47.527Z,101104.63
2022-10-28T23:08:15.693Z,101113.53
2022-10-28T23:10:42.440Z,101113.56
2022-10-28T23:13:12.693Z,101116.22
2022-10-28T23:15:39.321Z,101130.47
2022-10-28T23:18:05.999Z,101123.38
2022-10-28T23:20:34.711Z,101127.78
2022-10-28T23:23:01.433Z,101134.03
2022-10-28T23:25:27.974Z,101128.66
2022-10-28T23:27:55.099Z,101129.53
2022-10-28T23:30:21.723Z,101133.97
2022-10-28T23:32:48.339Z,101129.56
2022-10-28T23:35:14.879Z,101124.22
2022-10-28T23:37:41.482Z,101123.34
2022-10-28T23:42:41.571Z,101124.25
2022-10-28T23:45:09.550Z,101122.50
2022-10-28T23:47:36.487Z,101118.94
2022-10-28T23:50:03.635Z,101126.91
2022-10-28T23:52:30.138Z,101132.28
2022-10-28T23:54:56.842Z,101126.03
2022-10-28T23:57:23.419Z,101125.16
2022-10-28T23:59:49.931Z,101123.34
